• Join FlightAware (Why Join?)
  • Login
  • US Flag 
Rudolph Flight #1: Arrived! 
09:39PM EST


 

Airport Tracker/Info


-or-


 

Live Flight TrackerFlight Track Log ✈ SWA1319 ✈ 19-Apr-2013 ✈ KBHM - KDAL

Flight Track Log - Related Links

Times and Time Zones

All times are in EDT time to prevent confusion due to time zone crossing. See the SWA1319 flight status page for this flight to view local times or setup timezone preferences in your user account.

Time Position Orientation Groundspeed Altitude Reporting Facility
EDT Latitude Longitude Course Direction KTS MPH feet Rate Location/Type
01:43PM 33.5222 -86.8494 244° Southwest 217 250 4,600  Level Atlanta Center
01:44PM 33.5247 -86.9244 272° West 218 251 7,300 3,120 Climbing Atlanta Center
01:45PM 33.5206 -87.0039 266° West 240 276 11,000 2,160 Climbing Atlanta Center
01:46PM 33.5206 -87.0961 270° West 254 292 11,700 1,680 Climbing Atlanta Center
01:47PM 33.5178 -87.2031 268° West 292 336 14,400 2,340 Climbing Atlanta Center
01:48PM 33.5153 -87.3897 269° West 364 419 17,800 2,040 Climbing Memphis Center
01:49PM 33.5097 -87.5044 267° West 364 419 19,800 1,920 Climbing Memphis Center
01:50PM 33.5081 -87.6242 269° West 364 419 21,700 1,800 Climbing Memphis Center
01:51PM 33.5044 -87.7439 268° West 364 419 23,400 1,800 Climbing Memphis Center
01:52PM 33.5006 -87.8636 268° West 364 419 25,400 1,620 Climbing Memphis Center
01:53PM 33.4986 -87.9808 269° West 364 419 26,700 1,800 Climbing Memphis Center
01:54PM 33.4947 -88.0978 268° West 364 419 29,100 1,620 Climbing Memphis Center
01:56PM 33.4983 -88.2327 272° West  Level FlightAware Approximate
01:56PM 33.4922 -88.3247 272° West 348 400 31,700  Level Memphis Center
01:57PM 33.4878 -88.4367 267° West 348 400 32,800 1,140 Climbing Memphis Center
01:58PM 33.4853 -88.5489 269° West 348 400 34,000 1,200 Climbing Memphis Center
01:59PM 33.4869 -88.6611 271° West 348 400 35,200 960 Climbing Memphis Center
02:00PM 33.4864 -88.7681 270° West 342 394 36,000 360 Climbing Memphis Center
02:01PM 33.4833 -88.8653 268° West 335 386 36,000  Level Memphis Center
02:02PM 33.4825 -88.9750 270° West 330 380 36,000  Level Memphis Center
02:03PM 33.4817 -89.0844 270° West 330 380 36,000  Level Memphis Center
02:04PM 33.4825 -89.1917 271° West 330 380 36,000  Level Memphis Center
02:05PM 33.4794 -89.3011 268° West 330 380 36,000  Level Memphis Center
02:06PM 33.4783 -89.4133 269° West 330 380 36,000  Level Memphis Center
02:07PM 33.4769 -89.5253 269° West 330 380 36,000  Level Memphis Center
02:08PM 33.4736 -89.6350 268° West 335 386 36,000  Level Memphis Center
02:09PM 33.4719 -89.7472 269° West 335 386 36,000  Level Memphis Center
02:10PM 33.4392 -89.8469 249° West 330 380 36,000  Level Memphis Center
02:11PM 33.3997 -89.9442 244° Southwest 323 372 36,000  Level Memphis Center
02:12PM 33.3583 -90.0414 243° Southwest 323 372 36,000  Level Memphis Center
02:13PM 33.3147 -90.1483 244° Southwest 323 372 36,000  Level Memphis Center
02:14PM 33.2753 -90.2431 244° Southwest 323 372 36,000  Level Memphis Center
02:15PM 33.2356 -90.3375 243° Southwest 323 372 36,000  Level Memphis Center
02:16PM 33.1939 -90.4367 243° Southwest 323 372 36,000  Level Memphis Center
02:17PM 33.1542 -90.5333 244° Southwest 323 372 36,000  Level Memphis Center
02:18PM 33.1122 -90.6300 243° Southwest 323 372 36,000  Level Memphis Center
02:19PM 33.0722 -90.7317 245° Southwest 323 372 36,000  Level Memphis Center
02:20PM 33.0322 -90.8281 244° Southwest 323 372 36,000  Level Memphis Center
02:21PM 32.9900 -90.9244 242° Southwest 323 372 36,000  Level Memphis Center
02:22PM 32.9478 -91.0233 243° Southwest 323 372 36,000  Level Memphis Center
02:23PM 32.9056 -91.1219 243° Southwest 323 372 36,000  Level Memphis Center
02:24PM 32.8631 -91.2206 243° Southwest 328 377 36,000  Level Memphis Center
02:26PM 32.7953 -91.3864 244° Southwest 326 375 36,000  Level Fort Worth Center
02:27PM 32.7561 -91.4828 244° Southwest 331 381 36,000  Level Fort Worth Center
02:28PM 32.7275 -91.5861 252° West 332 382 36,000  Level Fort Worth Center
02:29PM 32.7119 -91.6981 261° West 332 382 36,000  Level Fort Worth Center
02:30PM 32.6961 -91.8128 261° West 332 382 36,000  Level Fort Worth Center
02:31PM 32.6781 -91.9222 259° West 332 382 36,000  Level Fort Worth Center
02:32PM 32.6672 -92.0069 261° West 337 388 36,000  Level Fort Worth Center
02:33PM 32.6453 -92.1292 258° West 337 388 36,000  Level Fort Worth Center
02:34PM 32.6289 -92.2386 260° West 344 396 36,000  Level Fort Worth Center
02:35PM 32.6122 -92.3456 260° West 339 390 36,000  Level Fort Worth Center
02:36PM 32.5936 -92.4525 258° West 339 390 36,000  Level Fort Worth Center
02:37PM 32.5769 -92.5569 259° West 332 382 36,000  Level Fort Worth Center
02:38PM 32.5578 -92.6614 258° West 332 382 36,000  Level Fort Worth Center
02:39PM 32.5411 -92.7708 260° West 337 388 36,000  Level Fort Worth Center
02:40PM 32.5222 -92.8803 258° West 337 388 36,000  Level Fort Worth Center
02:41PM 32.5031 -92.9869 258° West 337 388 36,000  Level Fort Worth Center
02:42PM 32.4858 -93.0961 259° West 337 388 36,000  Level Fort Worth Center
02:43PM 32.4686 -93.2006 259° West 337 388 36,000  Level Fort Worth Center
02:44PM 32.4492 -93.3072 258° West 337 388 36,000  Level Fort Worth Center
02:45PM 32.4317 -93.4139 259° West 337 388 36,000  Level Fort Worth Center
02:46PM 32.4119 -93.5181 257° West 337 388 36,000  Level Fort Worth Center
02:47PM 32.3986 -93.6269 262° West 337 388 36,000  Level Fort Worth Center
02:48PM 32.4039 -93.7350 273° West 337 388 36,000  Level Fort Worth Center
02:49PM 32.4031 -93.8456 270° West 337 388 36,000  Level Fort Worth Center
02:50PM 32.4039 -93.9589 271° West 337 388 36,000  Level Fort Worth Center
02:51PM 32.4069 -94.0669 272° West 337 388 36,000  Level Fort Worth Center
02:52PM 32.4078 -94.1775 271° West 337 388 36,000  Level Fort Worth Center
02:53PM 32.4106 -94.2883 272° West 337 388 36,000  Level Fort Worth Center
02:54PM 32.4111 -94.3964 270° West 337 388 36,000  Level Fort Worth Center
02:55PM 32.4114 -94.5047 270° West 337 388 36,000  Level Fort Worth Center
02:56PM 32.4142 -94.6178 272° West 337 388 36,000 -420 Level Fort Worth Center
02:57PM 32.4144 -94.7286 270° West 337 388 35,200 -900 Descending Fort Worth Center
02:58PM 32.4003 -94.8469 262° West 344 396 34,200 -960 Descending Fort Worth Center
02:59PM 32.3836 -94.9533 260° West 338 389 33,300 -900 Descending Fort Worth Center
03:00PM 32.3708 -95.0544 262° West 338 389 32,400 -840 Descending Fort Worth Center
03:01PM 32.3583 -95.1706 263° West 333 383 31,700 -840 Descending Fort Worth Center
03:02PM 32.3372 -95.2792 257° West 339 390 30,800 -1,260 Descending Fort Worth Center
03:03PM 32.3222 -95.3853 261° West 334 384 29,200 -2,160 Descending Fort Worth Center
03:04PM 32.3075 -95.4986 261° West 334 384 26,500 -2,880 Descending Fort Worth Center
03:05PM 32.3422 -95.6036 291° West 334 384 23,500 -2,700 Descending Fort Worth Center
03:06PM 32.3731 -95.7089 289° West 339 390 21,100 -2,340 Descending Fort Worth Center
03:07PM 32.4036 -95.8092 290° West 339 390 18,900 -1,980 Descending Fort Worth Center
03:08PM 32.4339 -95.9044 291° West 322 371 17,200 -1,800 Descending Fort Worth Center
03:09PM 32.4578 -95.9878 289° West 310 357 15,300 -2,040 Descending Fort Worth Center
03:10PM 32.4883 -96.0883 290° West 298 343 13,200 -1,980 Descending Fort Worth Center
03:11PM 32.5119 -96.1692 289° West 293 337 11,400 -1,680 Descending Fort Worth Center
03:12PM 32.5275 -96.2678 281° West 281 323 9,900 -1,200 Descending Fort Worth Center
03:13PM 32.5533 -96.3436 292° West 261 300 9,000 -1,020 Descending Fort Worth Center
03:14PM 32.5811 -96.4197 293° West 251 289 7,900 -1,020 Descending Fort Worth Center
03:15PM 32.6067 -96.4961 292° West 251 289 7,000 -1,140 Descending Fort Worth Center
03:16PM 32.6322 -96.5697 292° West 251 289 5,700 -900 Descending Fort Worth Center
03:17PM 32.6556 -96.6411 291° West 246 283 5,300 -720 Descending Fort Worth Center
03:18PM 32.6833 -96.6833 308° West 207 238 4,500 -1,020 Descending Dallas / Fort Worth TRACON
03:19PM 32.7333 -96.7167 331° Northwest 197 227 3,500 -1,080 Descending Dallas / Fort Worth TRACON
03:20PM 32.7667 -96.7667 308° West 176 203 2,400 -900 Descending Dallas / Fort Worth TRACON
03:21PM 32.8000 -96.8000 320° Northwest 138 159 1,700 -780 Descending Dallas / Fort Worth TRACON
03:22PM 32.8167 -96.8333 301° West 139 160 900 -900 Descending Dallas / Fort Worth TRACON